Time;durP1;ratioP1;P1;durP2;ratioP2;P2;SDS_P1;SDS_P2;PMS_P1;PMS_P2;Temp;Humidity;BMP_temperature;BMP_pressure;BME280_temperature;BME280_humidity;BME280_pressure;Samples;Min_cycle;Max_cycle;Signal;HPM_P1;HPM_P2
2023/03/14 00:01:50;;;;;;;1.00;0.90;;;;;;;12.60;68.08;97982.38;6059338;23;20243;-82
2023/03/14 00:04:16;;;;;;;0.90;0.83;;;;;;;12.62;67.63;97983.06;6059816;23;20952;-82
2023/03/14 00:06:41;;;;;;;0.90;0.80;;;;;;;12.65;67.79;98002.19;6061837;23;20441;-82
2023/03/14 00:09:07;;;;;;;0.93;0.77;;;;;;;12.64;67.02;98006.63;6059564;23;20295;-81
2023/03/14 00:11:32;;;;;;;0.80;0.60;;;;;;;12.68;66.76;98022.94;6035669;23;20271;-83
2023/03/14 00:13:59;;;;;;;0.70;0.60;;;;;;;12.70;66.28;98026.28;6059482;23;20181;-83
2023/03/14 00:16:25;;;;;;;7.47;1.20;;;;;;;12.73;66.00;98025.97;6061030;23;20452;-83
2023/03/14 00:18:50;;;;;;;3.07;0.60;;;;;;;12.76;65.54;98036.22;6054575;23;20197;-82
2023/03/14 00:21:16;;;;;;;1.07;0.70;;;;;;;12.78;65.33;98034.25;6058481;23;20624;-83
2023/03/14 00:23:42;;;;;;;0.90;0.60;;;;;;;12.80;65.19;98042.84;6059398;23;20179;-82
2023/03/14 00:26:10;;;;;;;1.00;0.60;;;;;;;12.81;64.80;98050.59;6060347;23;20180;-83
2023/03/14 00:28:37;;;;;;;0.70;0.70;;;;;;;12.87;64.37;98049.16;6033679;23;20725;-84
2023/03/14 00:31:04;;;;;;;1.50;0.77;;;;;;;12.91;63.90;98050.53;6058562;23;20176;-82
2023/03/14 00:33:29;;;;;;;0.70;0.60;;;;;;;12.95;63.63;98065.03;6034740;23;20647;-82
2023/03/14 00:35:57;;;;;;;1.55;0.85;;;;;;;13.03;63.39;98070.38;6060358;23;20416;-81
2023/03/14 00:38:24;;;;;;;0.80;0.68;;;;;;;13.08;62.90;98059.41;6060780;23;20274;-82
2023/03/14 00:40:50;;;;;;;0.60;0.50;;;;;;;13.13;62.73;98048.41;6035640;23;20178;-82
2023/03/14 00:43:16;;;;;;;3.00;0.80;;;;;;;13.13;62.80;98049.22;6059645;23;20196;-82
2023/03/14 00:45:41;;;;;;;2.40;0.70;;;;;;;13.15;62.70;98051.69;6061505;23;20164;-81
2023/03/14 00:48:07;;;;;;;1.10;0.90;;;;;;;13.16;62.61;98040.19;6034330;23;20445;-82
2023/03/14 00:50:32;;;;;;;1.27;0.70;;;;;;;13.15;62.59;98031.47;6057585;23;20180;-81
2023/03/14 00:52:58;;;;;;;0.80;0.80;;;;;;;13.16;62.22;98040.19;6060912;23;20191;-81
2023/03/14 00:55:24;;;;;;;2.70;0.70;;;;;;;13.16;62.07;98027.84;6062584;23;20210;-82
2023/03/14 00:57:50;;;;;;;0.70;0.60;;;;;;;13.13;62.16;98017.59;6069518;23;20445;-81
2023/03/14 01:00:15;;;;;;;0.77;0.67;;;;;;;13.12;62.10;97999.28;6066106;23;20434;-82
2023/03/14 01:02:41;;;;;;;1.20;0.77;;;;;;;13.12;62.10;98018.56;6065402;23;20628;-81
2023/03/14 01:05:07;;;;;;;1.30;0.80;;;;;;;13.12;61.82;97986.09;6037313;23;20665;-81
2023/03/14 01:07:33;;;;;;;1.27;1.05;;;;;;;13.10;61.71;98001.28;6036540;23;20276;-82
2023/03/14 01:09:58;;;;;;;1.93;0.70;;;;;;;13.05;61.65;98005.19;6064025;23;20275;-81
2023/03/14 01:12:23;;;;;;;1.07;0.77;;;;;;;13.05;61.26;98015.72;6064693;23;20233;-81
2023/03/14 01:14:49;;;;;;;1.77;0.90;;;;;;;13.05;61.30;98018.34;6040065;23;20199;-81
2023/03/14 01:17:14;;;;;;;0.80;0.70;;;;;;;13.03;61.22;98028.22;6067232;23;20763;-82
2023/03/14 01:19:40;;;;;;;1.83;0.93;;;;;;;13.01;61.20;98019.63;6066152;23;20200;-82
2023/03/14 01:22:05;;;;;;;2.20;0.80;;;;;;;13.01;61.10;98009.06;6064776;23;20567;-82
2023/03/14 01:24:30;;;;;;;0.80;0.70;;;;;;;12.99;61.22;98011.06;6066252;23;20240;-82
2023/03/14 01:26:56;;;;;;;1.10;0.80;;;;;;;12.95;61.25;98009.69;6067430;23;20239;-82
2023/03/14 01:29:23;;;;;;;0.77;0.70;;;;;;;12.92;61.40;98015.28;6041568;23;20284;-81
2023/03/14 01:31:49;;;;;;;1.43;1.10;;;;;;;12.94;61.43;98023.88;6042254;23;20188;-82
2023/03/14 01:34:15;;;;;;;1.23;1.13;;;;;;;12.91;61.42;98028.59;6040461;23;20199;-81
2023/03/14 01:36:40;;;;;;;1.63;0.90;;;;;;;12.87;61.52;98008.81;6043834;23;20254;-82
2023/03/14 01:39:06;;;;;;;2.40;0.90;;;;;;;12.84;61.67;98008.13;6066361;23;20195;-82
2023/03/14 01:41:32;;;;;;;1.40;0.90;;;;;;;12.78;61.91;97989.47;6043234;23;20266;-82
2023/03/14 01:43:58;;;;;;;3.75;0.90;;;;;;;12.73;62.03;97976.75;6039796;23;20421;-81
2023/03/14 01:46:45;;;;;;;3.10;0.80;;;;;;;12.68;62.28;97972.91;6067201;23;20177;-82
2023/03/14 01:49:14;;;;;;;1.70;1.60;;;;;;;12.61;62.47;97978.78;6040422;23;20222;-81
2023/03/14 01:51:54;;;;;;;1.63;0.80;;;;;;;12.57;62.40;97976.59;6041828;23;20185;-81
2023/03/14 01:54:32;;;;;;;2.40;1.08;;;;;;;12.55;62.21;97975.91;6039617;23;20213;-82
2023/03/14 01:57:06;;;;;;;1.52;0.90;;;;;;;12.51;61.91;97980.66;6038620;23;20193;-82
2023/03/14 01:59:33;;;;;;;1.60;0.80;;;;;;;12.48;61.92;97982.78;6041091;23;20700;-81
2023/03/14 02:01:59;;;;;;;1.35;0.80;;;;;;;12.48;61.87;97986.22;6067139;23;20163;-81
2023/03/14 02:04:29;;;;;;;1.10;0.80;;;;;;;12.44;61.80;97976.94;6036556;23;20405;-81
2023/03/14 02:07:27;;;;;;;1.65;0.80;;;;;;;12.48;61.71;97996.75;6065039;23;20159;-81
2023/03/14 02:10:05;;;;;;;3.70;1.08;;;;;;;12.48;61.78;97982.78;6013027;23;20756;-81
2023/03/14 02:12:34;;;;;;;3.85;1.23;;;;;;;12.43;61.99;97990.28;6040630;23;20633;-82
2023/03/14 02:15:09;;;;;;;3.13;1.00;;;;;;;12.40;62.04;97979.06;6037715;23;20206;-82
2023/03/14 02:18:02;;;;;;;1.27;0.73;;;;;;;12.42;61.97;97976.25;6007897;23;20191;-82
2023/03/14 02:21:11;;;;;;;0.93;0.70;;;;;;;12.41;62.01;97964.09;6036836;23;20162;-82
2023/03/14 02:23:45;;;;;;;1.58;0.93;;;;;;;12.42;61.93;97957.00;6062289;23;20185;-82
2023/03/14 02:26:20;;;;;;;1.33;0.90;;;;;;;12.40;61.92;97959.81;6039355;23;20170;-80
2023/03/14 02:28:46;;;;;;;1.05;0.80;;;;;;;12.43;61.65;97946.34;6037692;23;20183;-79
2023/03/14 02:31:12;;;;;;;0.87;0.70;;;;;;;12.46;61.56;97940.78;6040046;23;20219;-81
2023/03/14 02:33:38;;;;;;;1.57;0.70;;;;;;;12.45;61.49;97928.59;6066651;23;20158;-81
2023/03/14 02:36:07;;;;;;;1.10;0.80;;;;;;;12.46;61.15;97918.88;6066542;23;20437;-81
2023/03/14 02:39:13;;;;;;;3.90;0.80;;;;;;;12.48;61.00;97919.56;6037749;23;20187;-81
2023/03/14 02:41:42;;;;;;;2.47;1.08;;;;;;;12.48;61.07;97912.50;6030096;23;20170;-81
2023/03/14 02:44:07;;;;;;;1.75;0.95;;;;;;;12.48;60.91;97901.13;6039727;23;20157;-82
2023/03/14 02:46:34;;;;;;;1.90;0.97;;;;;;;12.49;60.61;97889.59;6039514;23;20159;-82
2023/03/14 02:49:07;;;;;;;3.35;0.90;;;;;;;12.49;60.35;97895.69;6037630;23;20225;-81
2023/03/14 02:51:36;;;;;;;1.40;0.90;;;;;;;12.50;60.30;97880.72;6041043;23;20241;-81
2023/03/14 02:54:02;;;;;;;3.08;0.80;;;;;;;12.49;59.85;97879.91;6039878;23;20315;-81
2023/03/14 02:56:27;;;;;;;2.97;1.00;;;;;;;12.52;59.59;97878.75;6066098;23;20178;-81
2023/03/14 02:58:53;;;;;;;3.53;1.00;;;;;;;12.52;59.52;97882.22;6039840;23;20198;-81
2023/03/14 03:01:27;;;;;;;4.50;1.05;;;;;;;12.53;59.27;97864.59;6040682;23;20222;-79
2023/03/14 03:03:53;;;;;;;0.90;0.70;;;;;;;12.52;59.31;97861.16;6037750;23;20174;-82
2023/03/14 03:06:19;;;;;;;0.83;0.73;;;;;;;12.51;59.25;97853.41;6064255;23;20170;-82
2023/03/14 03:08:45;;;;;;;1.77;0.80;;;;;;;12.51;58.98;97854.25;6039366;23;20202;-81
2023/03/14 03:11:10;;;;;;;1.30;0.90;;;;;;;12.50;58.91;97859.66;6038316;23;20223;-81
2023/03/14 03:13:36;;;;;;;2.30;0.70;;;;;;;12.50;58.67;97849.97;6039681;23;20197;-81
2023/03/14 03:16:06;;;;;;;0.70;0.70;;;;;;;12.54;58.41;97858.38;6038030;23;20274;-82
2023/03/14 03:18:33;;;;;;;1.60;0.90;;;;;;;12.53;58.47;97856.72;6038691;23;20185;-81
2023/03/14 03:21:03;;;;;;;1.57;0.70;;;;;;;12.50;58.43;97843.84;6042091;23;20168;-82
2023/03/14 03:23:29;;;;;;;1.27;0.80;;;;;;;12.49;58.35;97842.22;6068420;23;20186;-82
2023/03/14 03:25:56;;;;;;;1.00;0.90;;;;;;;12.49;58.16;97858.00;6066846;23;20156;-81
2023/03/14 03:28:22;;;;;;;1.40;0.73;;;;;;;12.47;57.98;97850.25;6065188;23;20211;-81
2023/03/14 03:30:48;;;;;;;2.03;0.90;;;;;;;12.48;58.02;97841.38;6041884;23;20484;-81
2023/03/14 03:33:14;;;;;;;2.17;1.20;;;;;;;12.45;58.24;97849.59;6066371;23;20165;-81
2023/03/14 03:35:47;;;;;;;1.17;0.93;;;;;;;12.46;58.25;97839.88;6065523;23;20413;-81
2023/03/14 03:38:15;;;;;;;1.67;1.02;;;;;;;12.44;58.27;97837.38;6040981;23;20418;-81
2023/03/14 03:40:42;;;;;;;1.15;0.88;;;;;;;12.43;58.14;97821.75;6041449;23;20242;-81
2023/03/14 03:43:08;;;;;;;1.05;0.73;;;;;;;12.41;58.08;97811.38;6042802;23;20179;-81
2023/03/14 03:45:40;;;;;;;1.75;0.70;;;;;;;12.39;58.13;97815.94;6040604;23;20402;-81
2023/03/14 03:48:06;;;;;;;5.40;1.10;;;;;;;12.37;58.06;97812.66;6040653;23;20664;-82
2023/03/14 03:50:31;;;;;;;1.75;1.00;;;;;;;12.36;58.05;97811.00;6042122;23;20290;-81
2023/03/14 03:52:57;;;;;;;4.47;1.20;;;;;;;12.33;57.96;97801.59;6041720;23;20165;-81
2023/03/14 03:55:22;;;;;;;2.80;0.80;;;;;;;12.31;58.05;97802.72;6065308;23;20204;-80
2023/03/14 03:57:47;;;;;;;1.83;0.80;;;;;;;12.29;58.10;97796.81;5622914;23;10001337;-81
2023/03/14 04:00:13;;;;;;;6.10;1.27;;;;;;;12.28;58.15;97803.84;6066453;23;20157;-81
2023/03/14 04:02:41;;;;;;;1.13;0.68;;;;;;;12.24;58.08;97801.69;6067063;23;20225;-81
2023/03/14 04:05:10;;;;;;;1.55;0.90;;;;;;;12.21;58.32;97796.75;6040649;23;20678;-81
2023/03/14 04:07:37;;;;;;;1.48;1.38;;;;;;;12.20;58.48;97790.63;6040389;23;20167;-81
2023/03/14 04:10:04;;;;;;;0.98;0.90;;;;;;;12.21;58.35;97780.97;6047933;23;20194;-82
2023/03/14 04:12:36;;;;;;;2.05;1.05;;;;;;;12.15;58.57;97785.84;6065391;23;20204;-82
2023/03/14 04:15:07;;;;;;;1.50;1.00;;;;;;;12.14;58.63;97776.28;6118367;23;20193;-81
2023/03/14 04:17:33;;;;;;;2.25;0.88;;;;;;;12.15;58.50;97783.22;6099685;23;20161;-81
2023/03/14 04:19:59;;;;;;;3.37;0.93;;;;;;;12.16;58.30;97786.66;6100382;23;20219;-82
2023/03/14 04:22:32;;;;;;;4.32;1.65;;;;;;;12.17;58.20;97777.78;6101031;23;20171;-81
2023/03/14 04:24:59;;;;;;;2.45;1.35;;;;;;;12.15;58.18;97769.19;6100174;23;20153;-82
2023/03/14 04:27:24;;;;;;;1.43;1.07;;;;;;;12.15;57.59;97754.25;6101937;23;20165;-81
2023/03/14 04:29:50;;;;;;;2.90;2.50;;;;;;;12.15;57.63;97764.78;6100606;23;20181;-81
2023/03/14 04:32:20;;;;;;;2.67;0.90;;;;;;;12.15;57.57;97751.63;6101228;23;20163;-81
2023/03/14 04:34:46;;;;;;;1.05;0.63;;;;;;;12.15;57.56;97756.03;6126652;23;20189;-81
2023/03/14 04:37:12;;;;;;;1.57;0.70;;;;;;;12.14;57.44;97747.31;6094912;23;20165;-81
2023/03/14 04:39:41;;;;;;;0.80;0.63;;;;;;;12.14;57.19;97741.25;6113043;23;20190;-81
2023/03/14 04:42:15;;;;;;;3.50;0.70;;;;;;;12.14;57.07;97760.50;6151083;23;20163;-81
2023/03/14 04:44:43;;;;;;;1.05;0.93;;;;;;;12.13;57.14;97761.47;6151712;23;20221;-83
2023/03/14 04:47:09;;;;;;;2.80;0.82;;;;;;;12.13;57.08;97744.88;6153351;23;20183;-81
2023/03/14 04:49:35;;;;;;;1.52;0.80;;;;;;;12.12;57.15;97737.94;6180192;23;20187;-81
2023/03/14 04:52:00;;;;;;;1.70;1.00;;;;;;;12.12;56.99;97736.16;6184496;23;20162;-81
2023/03/14 04:54:28;;;;;;;1.60;0.80;;;;;;;12.10;56.98;97734.66;6157243;23;20261;-81
2023/03/14 04:56:56;;;;;;;1.58;0.95;;;;;;;12.09;56.96;97731.16;6157205;23;20164;-81
2023/03/14 04:59:22;;;;;;;1.17;0.80;;;;;;;12.10;57.02;97734.66;6181896;23;20183;-82
2023/03/14 05:01:50;;;;;;;0.90;0.70;;;;;;;12.10;56.94;97718.84;6182353;23;20175;-81
2023/03/14 05:04:24;;;;;;;1.83;0.60;;;;;;;12.09;56.76;97714.56;6181322;23;20653;-81
2023/03/14 05:07:15;;;;;;;0.70;0.70;;;;;;;12.06;56.87;97706.97;6137880;23;20175;-81
2023/03/14 05:09:48;;;;;;;2.45;0.80;;;;;;;12.06;56.81;97699.91;6156492;23;20207;-82
2023/03/14 05:12:41;;;;;;;1.15;0.70;;;;;;;12.05;56.72;97715.84;6184921;23;20159;-81
2023/03/14 05:15:41;;;;;;;0.70;0.63;;;;;;;12.03;56.95;97720.44;6153904;23;20194;-81
2023/03/14 05:18:26;;;;;;;1.83;0.80;;;;;;;12.02;57.09;97709.09;6184345;23;20229;-81
2023/03/14 05:21:05;;;;;;;2.20;0.80;;;;;;;12.03;56.98;97708.09;6158201;23;20417;-82
2023/03/14 05:24:00;;;;;;;3.35;0.82;;;;;;;12.06;56.95;97702.53;6164626;23;20186;-81
2023/03/14 05:26:34;;;;;;;1.38;0.90;;;;;;;12.08;57.03;97710.28;6182480;23;20182;-82
2023/03/14 05:29:16;;;;;;;0.80;0.60;;;;;;;12.09;56.80;97696.94;6157477;23;20643;-81
2023/03/14 05:32:00;;;;;;;0.95;0.75;;;;;;;12.10;56.83;97698.63;6159810;23;20252;-81
2023/03/14 05:34:37;;;;;;;1.55;0.80;;;;;;;12.10;56.83;97697.81;6184232;23;20231;-81
2023/03/14 05:37:12;;;;;;;0.80;0.70;;;;;;;12.09;57.03;97693.50;6181571;23;20259;-81
2023/03/14 05:39:48;;;;;;;0.90;0.70;;;;;;;12.07;56.87;97691.03;6157551;23;20189;-81
2023/03/14 05:42:33;;;;;;;3.08;0.80;;;;;;;12.07;56.70;97690.19;6161624;23;20207;-81
2023/03/14 05:45:13;;;;;;;1.00;0.60;;;;;;;12.06;56.78;97686.75;6183644;23;20164;-81
2023/03/14 05:48:16;;;;;;;1.67;1.17;;;;;;;12.05;56.74;97679.84;6158873;23;20176;-81
2023/03/14 05:51:02;;;;;;;0.80;0.60;;;;;;;12.07;56.79;97677.03;6161653;23;20199;-82
2023/03/14 05:53:47;;;;;;;1.30;0.90;;;;;;;12.07;56.60;97677.88;6128510;23;20173;-82
2023/03/14 05:56:32;;;;;;;3.35;0.70;;;;;;;12.08;56.58;97687.41;6190683;23;20183;-81
2023/03/14 05:59:09;;;;;;;0.93;0.60;;;;;;;12.09;56.57;97686.44;6157609;23;20256;-82
2023/03/14 06:01:50;;;;;;;3.40;1.10;;;;;;;12.11;56.27;97684.47;6161174;23;20632;-82
2023/03/14 06:04:30;;;;;;;0.90;0.70;;;;;;;12.12;56.29;97680.88;6162063;23;20531;-81
2023/03/14 06:07:14;;;;;;;1.10;0.80;;;;;;;12.13;56.20;97669.38;6138933;23;20168;-81
2023/03/14 06:10:29;;;;;;;0.70;0.65;;;;;;;12.15;56.09;97674.44;6162080;23;20252;-81
2023/03/14 06:12:54;;;;;;;0.70;0.60;;;;;;;12.17;55.90;97673.31;6159657;23;20178;-81
2023/03/14 06:15:20;;;;;;;1.20;0.80;;;;;;;12.20;55.79;97679.25;6158160;23;20205;-83
2023/03/14 06:17:51;;;;;;;2.55;0.90;;;;;;;12.20;55.55;97672.19;6158079;23;20503;-80
2023/03/14 06:20:18;;;;;;;2.95;1.52;;;;;;;12.23;55.49;97676.31;6159698;23;20257;-80
2023/03/14 06:22:43;;;;;;;2.65;1.85;;;;;;;12.25;55.44;97677.81;6160104;23;20198;-81
2023/03/14 06:25:11;;;;;;;2.95;1.98;;;;;;;12.26;55.40;97671.59;6186162;23;20943;-82
2023/03/14 06:27:37;;;;;;;4.43;1.67;;;;;;;12.31;55.29;97692.16;6160489;23;20232;-82
2023/03/14 06:30:03;;;;;;;4.73;2.13;;;;;;;12.31;55.21;97689.53;6183563;23;20194;-81
2023/03/14 06:32:30;;;;;;;4.25;1.50;;;;;;;12.32;55.23;97685.94;6156388;23;20189;-82
2023/03/14 06:35:02;;;;;;;5.20;2.20;;;;;;;12.35;55.25;97685.63;6157290;23;20407;-81
2023/03/14 06:37:34;;;;;;;4.05;2.25;;;;;;;12.38;55.30;97690.56;6183383;23;20808;-82
2023/03/14 06:40:00;;;;;;;3.35;2.47;;;;;;;12.37;55.15;97688.94;6150139;23;20192;-80
2023/03/14 06:42:45;;;;;;;1.08;0.90;;;;;;;12.38;55.11;97694.03;6177325;23;20155;-79
2023/03/14 06:45:20;;;;;;;1.15;0.85;;;;;;;12.42;55.18;97685.81;6157152;23;20180;-83
2023/03/14 06:47:52;;;;;;;1.90;1.08;;;;;;;12.44;55.16;97695.19;6159164;23;20189;-81
2023/03/14 06:50:29;;;;;;;0.90;0.70;;;;;;;12.49;55.16;97697.38;6183897;23;20197;-82
2023/03/14 06:53:09;;;;;;;1.08;0.77;;;;;;;12.51;55.25;97703.31;6160691;23;20189;-81
2023/03/14 06:55:38;;;;;;;1.85;0.82;;;;;;;12.56;55.09;97693.97;6159818;23;20201;-82
2023/03/14 06:58:04;;;;;;;1.47;0.80;;;;;;;12.62;54.98;97697.78;6161049;23;20171;-81
2023/03/14 07:00:31;;;;;;;3.83;1.95;;;;;;;12.67;54.89;97689.41;6160151;23;20436;-81
2023/03/14 07:02:57;;;;;;;2.30;2.10;;;;;;;12.69;54.96;97690.06;6185521;23;20555;-81
2023/03/14 07:05:29;;;;;;;6.80;3.67;;;;;;;12.73;54.84;97686.94;6157567;23;20547;-81
2023/03/14 07:07:55;;;;;;;3.00;1.00;;;;;;;12.74;54.79;97687.78;6158894;23;20185;-81
2023/03/14 07:10:21;;;;;;;1.10;0.80;;;;;;;12.75;54.77;97690.25;6158071;23;20450;-81
2023/03/14 07:12:48;;;;;;;1.65;1.15;;;;;;;12.77;54.87;97695.34;6182901;23;20411;-81
2023/03/14 07:15:14;;;;;;;1.67;1.50;;;;;;;12.77;55.04;97693.56;6157226;23;20576;-82
2023/03/14 07:17:40;;;;;;;2.93;1.20;;;;;;;12.81;54.93;97688.78;6183835;23;20396;-81
2023/03/14 07:20:07;;;;;;;2.10;0.90;;;;;;;12.84;54.84;97694.56;6181864;23;20549;-81
2023/03/14 07:22:33;;;;;;;1.25;0.95;;;;;;;12.88;54.80;97708.28;6180409;23;20192;-81
2023/03/14 07:24:58;;;;;;;3.77;1.13;;;;;;;12.90;54.72;97703.63;6182774;23;20475;-81
2023/03/14 07:27:24;;;;;;;1.67;1.08;;;;;;;12.95;54.58;97711.09;6157582;23;20225;-81
2023/03/14 07:29:50;;;;;;;2.63;1.50;;;;;;;12.97;54.49;97711.75;6157570;23;20281;-81
2023/03/14 07:32:16;;;;;;;5.40;3.20;;;;;;;12.99;54.60;97720.34;6159382;23;20615;-81
2023/03/14 07:34:42;;;;;;;7.10;4.93;;;;;;;12.99;54.73;97721.16;6155419;23;20188;-81
2023/03/14 07:37:08;;;;;;;3.37;2.50;;;;;;;12.98;54.48;97722.13;6157445;23;20625;-81
2023/03/14 07:39:34;;;;;;;2.60;1.33;;;;;;;13.00;54.54;97719.34;6159666;23;20460;-81
2023/03/14 07:42:04;;;;;;;1.70;1.05;;;;;;;13.03;54.20;97734.81;6162696;23;20175;-81
2023/03/14 07:44:52;;;;;;;1.48;1.05;;;;;;;13.05;54.01;97720.50;6152204;23;20178;-82
2023/03/14 07:47:17;;;;;;;1.90;1.70;;;;;;;13.08;53.79;97719.38;6178939;23;20202;-82
2023/03/14 07:49:43;;;;;;;3.30;1.57;;;;;;;13.10;53.66;97727.13;6177960;23;20248;-81
2023/03/14 07:52:08;;;;;;;1.10;0.90;;;;;;;13.12;53.53;97738.31;6180295;23;20174;-82
2023/03/14 07:54:33;;;;;;;1.27;0.90;;;;;;;13.11;53.47;97742.75;6177820;23;20195;-81
2023/03/14 07:57:00;;;;;;;2.20;0.80;;;;;;;13.14;53.51;97739.00;6177435;23;20518;-81
2023/03/14 08:02:11;;;;;;;1.77;0.90;;;;;;;13.16;53.68;97753.66;6118511;23;20189;-82
2023/03/14 08:04:37;;;;;;;1.70;0.90;;;;;;;13.18;53.78;97754.34;6121309;23;20394;-81
2023/03/14 08:07:03;;;;;;;4.40;1.10;;;;;;;13.19;53.83;97753.34;6097524;23;20236;-82
2023/03/14 08:09:28;;;;;;;2.47;2.27;;;;;;;13.20;54.01;97759.44;6124118;23;20196;-81
2023/03/14 08:11:54;;;;;;;1.80;1.13;;;;;;;13.20;54.28;97767.34;6149981;23;20180;-81
2023/03/14 08:14:19;;;;;;;1.20;1.10;;;;;;;13.17;54.30;97765.03;6150866;23;20227;-82
2023/03/14 08:16:45;;;;;;;1.83;0.90;;;;;;;13.15;54.79;97774.91;6155753;23;20193;-81
2023/03/14 08:19:10;;;;;;;1.03;0.70;;;;;;;13.12;54.54;97783.13;6149166;23;20657;-82
2023/03/14 08:21:36;;;;;;;1.47;0.90;;;;;;;13.07;54.96;97766.00;6155206;23;20171;-82
2023/03/14 08:24:02;;;;;;;2.90;0.97;;;;;;;13.03;55.00;97772.53;6148816;23;20164;-82
2023/03/14 08:26:27;;;;;;;1.60;0.87;;;;;;;13.00;55.29;97757.06;6146514;23;20188;-81
2023/03/14 08:28:53;;;;;;;0.87;0.87;;;;;;;12.98;55.58;97772.19;6150235;23;20582;-81
2023/03/14 08:31:18;;;;;;;1.37;1.20;;;;;;;12.99;55.66;97786.22;6150427;23;20194;-81
2023/03/14 08:33:46;;;;;;;1.97;1.30;;;;;;;12.98;55.84;97790.63;6156883;23;20188;-81
2023/03/14 08:36:11;;;;;;;5.05;1.98;;;;;;;12.98;55.88;97793.28;6156408;23;20271;-81
2023/03/14 08:38:37;;;;;;;3.77;1.70;;;;;;;13.00;56.12;97791.31;6154763;23;20180;-82
2023/03/14 08:41:03;;;;;;;1.10;0.80;;;;;;;13.02;56.13;97792.00;6158776;23;20204;-81
2023/03/14 08:43:29;;;;;;;3.65;1.52;;;;;;;13.02;56.44;97792.00;6158196;23;20671;-82
2023/03/14 08:45:58;;;;;;;1.77;1.10;;;;;;;13.09;56.55;97788.72;6159860;23;20359;-82
2023/03/14 08:48:23;;;;;;;2.13;1.20;;;;;;;13.15;56.51;97796.84;6159751;23;20178;-81
2023/03/14 08:50:49;;;;;;;5.27;1.50;;;;;;;13.20;56.39;97805.06;6160869;23;20257;-81
2023/03/14 08:53:14;;;;;;;1.37;1.20;;;;;;;13.26;56.46;97795.75;6156625;23;20678;-81
2023/03/14 08:55:40;;;;;;;3.23;1.50;;;;;;;13.30;56.18;97797.06;6156185;23;20244;-81
2023/03/14 08:58:05;;;;;;;6.57;1.20;;;;;;;13.36;56.56;97801.69;6156808;23;20189;-81
2023/03/14 09:00:31;;;;;;;2.73;1.30;;;;;;;13.39;56.26;97798.75;6155909;23;20235;-81
2023/03/14 09:02:56;;;;;;;2.67;0.90;;;;;;;13.43;56.00;97805.38;6157332;23;20168;-81
2023/03/14 09:05:22;;;;;;;1.83;1.17;;;;;;;13.46;56.01;97799.75;6158130;23;20237;-82
2023/03/14 09:07:47;;;;;;;1.03;0.80;;;;;;;13.54;55.83;97798.16;6156483;23;20194;-81
2023/03/14 09:10:12;;;;;;;1.30;0.80;;;;;;;13.59;55.35;97804.59;6154356;23;20290;-81
2023/03/14 09:12:38;;;;;;;0.90;0.70;;;;;;;13.65;54.87;97795.19;6154729;23;20168;-81
2023/03/14 09:15:04;;;;;;;0.70;0.60;;;;;;;13.71;54.52;97799.81;6153242;23;20230;-81
2023/03/14 09:17:29;;;;;;;0.80;0.60;;;;;;;13.75;54.26;97803.00;6152688;23;20171;-81
2023/03/14 09:19:55;;;;;;;0.70;0.63;;;;;;;13.77;53.74;97796.56;6153984;23;20189;-81
2023/03/14 09:22:21;;;;;;;0.80;0.80;;;;;;;13.77;53.22;97795.72;6153353;23;20653;-81
2023/03/14 09:24:46;;;;;;;0.70;0.60;;;;;;;13.70;53.22;97803.47;6152221;23;20152;-81
2023/03/14 09:27:12;;;;;;;1.73;0.80;;;;;;;13.66;53.00;97791.56;6153492;23;20621;-80
2023/03/14 09:29:37;;;;;;;1.43;0.70;;;;;;;13.63;53.11;97800.63;6153069;23;20468;-81
2023/03/14 09:32:03;;;;;;;0.60;0.60;;;;;;;13.61;53.30;97807.06;6151885;23;20152;-80
2023/03/14 09:34:29;;;;;;;0.80;0.57;;;;;;;13.55;53.43;97805.06;6151740;23;20493;-80
2023/03/14 09:36:54;;;;;;;0.97;0.60;;;;;;;13.52;53.44;97798.28;6152775;23;20487;-80
2023/03/14 09:39:20;;;;;;;0.60;0.50;;;;;;;13.50;53.73;97800.25;6153673;23;20394;-80
2023/03/14 09:41:54;;;;;;;1.20;0.70;;;;;;;13.46;53.79;97797.13;6152334;23;20159;-81
2023/03/14 09:44:39;;;;;;;0.80;0.65;;;;;;;13.44;53.82;97801.72;6153504;23;20230;-80
2023/03/14 09:47:13;;;;;;;0.75;0.60;;;;;;;13.44;53.79;97798.28;6127421;23;20174;-81
2023/03/14 09:49:42;;;;;;;0.70;0.57;;;;;;;13.43;53.79;97818.56;6153300;23;20278;-80
2023/03/14 09:52:26;;;;;;;0.60;0.60;;;;;;;13.42;53.89;97805.50;6153552;23;20163;-80
2023/03/14 09:54:56;;;;;;;1.10;0.60;;;;;;;13.35;54.10;97792.16;6151598;23;20674;-80
2023/03/14 09:57:24;;;;;;;0.60;0.55;;;;;;;13.31;54.27;97800.53;6151799;23;20162;-81
2023/03/14 09:59:53;;;;;;;0.60;0.50;;;;;;;13.28;54.83;97831.53;6151464;23;20626;-81
2023/03/14 10:02:23;;;;;;;0.90;0.60;;;;;;;13.21;55.25;97814.66;6151498;23;20160;-81
2023/03/14 10:04:51;;;;;;;0.80;0.60;;;;;;;13.18;55.44;97817.59;6152422;23;20162;-81
2023/03/14 10:07:28;;;;;;;0.98;0.70;;;;;;;13.16;55.86;97816.94;6151196;23;20166;-81
2023/03/14 10:10:12;;;;;;;1.40;0.60;;;;;;;13.14;56.30;97820.69;6146916;23;20193;-91
2023/03/14 10:13:02;;;;;;;1.17;0.80;;;;;;;13.11;56.63;97828.94;6073964;23;20690;-89
2023/03/14 10:15:32;;;;;;;0.70;0.60;;;;;;;13.11;57.03;97829.75;6078732;23;20190;-89
2023/03/14 10:18:21;;;;;;;2.35;1.33;;;;;;;13.13;57.44;97837.50;6080392;23;20656;-90
2023/03/14 10:21:28;;;;;;;2.80;0.63;;;;;;;13.16;57.69;97826.66;6075542;23;20228;-90
2023/03/14 10:24:24;;;;;;;0.80;0.70;;;;;;;13.21;57.49;97842.81;6076660;23;20165;-89
2023/03/14 10:27:01;;;;;;;0.70;0.60;;;;;;;13.21;57.66;97832.28;6050411;23;20164;-90
2023/03/14 10:29:52;;;;;;;0.70;0.70;;;;;;;13.19;57.84;97834.25;6102997;23;20238;-90
2023/03/14 10:32:29;;;;;;;0.60;0.60;;;;;;;13.19;58.62;97842.16;6106602;23;20156;-89
2023/03/14 10:37:27;;;;;;;1.55;0.90;;;;;;;13.15;59.52;97853.97;6033400;23;20429;-78
2023/03/14 10:39:55;;;;;;;1.10;1.00;;;;;;;13.12;60.02;97864.84;6039473;23;20493;-77
2023/03/14 10:42:31;;;;;;;1.65;0.77;;;;;;;13.10;60.40;97867.66;6063001;23;20504;-76
2023/03/14 10:45:29;;;;;;;0.90;0.70;;;;;;;13.07;60.83;97881.97;6062444;23;20631;-77
2023/03/14 10:47:54;;;;;;;0.80;0.70;;;;;;;13.07;61.03;97889.88;6043965;23;20751;-77
2023/03/14 10:50:27;;;;;;;0.97;0.73;;;;;;;13.07;61.19;97891.69;6062049;23;20232;-77
2023/03/14 10:52:54;;;;;;;0.82;0.60;;;;;;;13.06;60.84;97871.56;6063512;23;20169;-78
2023/03/14 10:55:20;;;;;;;0.70;0.60;;;;;;;13.00;60.93;97902.00;6062374;23;20212;-77
2023/03/14 10:57:46;;;;;;;1.20;0.60;;;;;;;12.98;61.00;97893.41;6062793;23;20285;-77
2023/03/14 11:00:19;;;;;;;1.17;0.70;;;;;;;12.95;61.20;97921.91;6059892;23;20406;-77
2023/03/14 11:03:05;;;;;;;1.20;0.85;;;;;;;12.90;61.32;97905.72;6058961;23;20158;-77
2023/03/14 11:05:57;;;;;;;1.13;0.90;;;;;;;12.87;61.37;97933.22;6060169;23;20188;-77
2023/03/14 11:08:31;;;;;;;1.20;1.00;;;;;;;12.85;61.69;97935.16;6060615;23;20169;-77
2023/03/14 11:11:14;;;;;;;3.67;1.15;;;;;;;12.86;62.26;97942.09;6061900;23;20227;-77
2023/03/14 11:13:53;;;;;;;1.50;0.90;;;;;;;12.82;62.81;97953.91;6058314;23;20161;-77
2023/03/14 11:16:40;;;;;;;1.40;0.70;;;;;;;12.79;63.49;97951.59;6057036;23;20185;-79
2023/03/14 11:19:56;;;;;;;1.67;0.90;;;;;;;12.79;64.16;97943.69;6048726;23;20161;-77
2023/03/14 11:22:50;;;;;;;1.35;1.00;;;;;;;12.73;64.68;97975.91;6011468;23;20488;-77
2023/03/14 11:25:30;;;;;;;1.60;0.80;;;;;;;12.61;65.56;98036.72;6077058;23;20171;-77
2023/03/14 11:28:20;;;;;;;1.20;1.10;;;;;;;12.53;66.22;98072.66;6080163;23;20236;-77
2023/03/14 11:31:04;;;;;;;0.85;0.70;;;;;;;12.46;66.70;98085.59;6074628;23;20173;-77
2023/03/14 11:33:52;;;;;;;0.80;0.70;;;;;;;12.23;65.58;98098.31;6080929;23;20415;-80
2023/03/14 11:36:24;;;;;;;0.60;0.50;;;;;;;12.01;64.02;98120.56;6101965;23;20184;-81
2023/03/14 11:38:51;;;;;;;0.77;0.60;;;;;;;11.84;61.28;98121.28;6116099;23;20160;-81
2023/03/14 11:41:29;;;;;;;1.55;0.55;;;;;;;11.70;59.62;98143.59;6117639;23;20235;-80
2023/03/14 11:44:00;;;;;;;1.40;1.10;;;;;;;11.65;58.91;98151.91;6113680;23;20183;-81
2023/03/14 11:46:34;;;;;;;0.75;0.60;;;;;;;11.60;58.56;98169.91;6115192;23;20233;-80
2023/03/14 11:49:22;;;;;;;1.00;0.88;;;;;;;11.55;57.08;98177.38;6116552;23;20464;-79
2023/03/14 11:51:51;;;;;;;0.90;0.70;;;;;;;11.51;55.23;98195.22;6115583;23;20214;-79
2023/03/14 11:54:45;;;;;;;1.23;0.60;;;;;;;11.51;55.34;98203.13;6115368;23;20238;-79
2023/03/14 11:57:18;;;;;;;0.82;0.60;;;;;;;11.62;54.96;98212.69;6117230;23;20255;-78
2023/03/14 11:59:57;;;;;;;0.88;0.60;;;;;;;11.74;54.08;98216.81;6115232;23;20799;-78